Saint-Joachim, Canada
Current Conditions -  °F | °C
As of 7:00 AM on Friday 24 Oct 2014 (Local Time) from CYQB Reporting Station
Broken Clouds Broken Clouds  
Wind Chill: 40°   Ceiling: 10000
Heat Index: 45°   Visibility: 30mi
Dew Point: 34°   Wind: 9mph
Humidity: 66%   Direction: 70°ENE
Pressure: 29.89"   Gusts: NA
Location:  47.05°N, 70.85°W
Report Text: CYQB 241100Z 07008KT 30SM SCT053 BKN100 07/01 A2989 RMK SC3AC4 SLP124
Loading
Personal Weather Stations






























Interactive Weather Map
Tropical Storm Tracking
New forecast layout! Learn more

10-Day Weather Forecast

Advertisements
Track Severe Weather on mobile